Time;durP1;ratioP1;P1;durP2;ratioP2;P2;SDS_P1;SDS_P2;PMS_P1;PMS_P2;Temp;Humidity;BMP_temperature;BMP_pressure;BME280_temperature;BME280_humidity;BME280_pressure;Samples;Min_cycle;Max_cycle;Signal;HPM_P1;HPM_P2
2022/06/11 00:02:02;;;;;;;8.27;4.38;;;;;;;24.38;43.46;99330.56;4993919;28;20030;-71
2022/06/11 00:04:41;;;;;;;6.63;4.28;;;;;;;24.39;43.71;99329.53;4995117;28;20052;-72
2022/06/11 00:07:11;;;;;;;11.88;4.32;;;;;;;24.38;43.83;99334.09;4994712;28;20041;-72
2022/06/11 00:09:37;;;;;;;10.60;4.40;;;;;;;24.36;44.00;99338.88;4994310;28;20482;-71
2022/06/11 00:12:04;;;;;;;6.75;4.57;;;;;;;24.37;43.95;99339.72;4993853;28;20088;-71
2022/06/11 00:14:32;;;;;;;11.73;4.32;;;;;;;24.35;43.94;99339.13;4994771;28;20489;-69
2022/06/11 00:16:59;;;;;;;6.85;4.35;;;;;;;24.37;44.26;99339.72;4993431;28;20038;-69
2022/06/11 00:19:25;;;;;;;9.35;4.20;;;;;;;24.39;44.20;99332.22;4994694;28;20116;-70
2022/06/11 00:21:53;;;;;;;7.32;4.28;;;;;;;24.43;44.28;99335.31;4992498;28;20466;-70
2022/06/11 00:24:19;;;;;;;7.75;4.03;;;;;;;24.44;44.23;99337.00;4992876;28;20057;-69
2022/06/11 00:26:46;;;;;;;8.02;4.20;;;;;;;24.46;44.04;99333.00;4992535;28;20030;-70
2022/06/11 00:29:14;;;;;;;8.02;4.18;;;;;;;24.50;43.95;99344.22;4993396;28;20057;-70
2022/06/11 00:31:41;;;;;;;8.65;4.47;;;;;;;24.51;44.00;99343.16;4993667;28;20034;-69
2022/06/11 00:34:07;;;;;;;6.43;4.30;;;;;;;24.51;44.06;99335.06;4993974;28;20386;-69
2022/06/11 00:36:32;;;;;;;7.38;3.88;;;;;;;24.48;44.10;99340.94;4993573;28;20040;-70
2022/06/11 00:38:58;;;;;;;11.13;5.30;;;;;;;24.47;43.92;99337.38;4994343;28;20072;-70
2022/06/11 00:41:28;;;;;;;6.10;3.85;;;;;;;24.47;44.06;99345.50;4993518;28;20393;-70
2022/06/11 00:43:54;;;;;;;9.55;4.13;;;;;;;24.49;43.87;99350.66;4993711;28;20038;-70
2022/06/11 00:46:38;;;;;;;4.43;3.50;;;;;;;24.48;44.02;99349.03;4993186;28;20032;-69
2022/06/11 00:49:16;;;;;;;6.55;4.28;;;;;;;24.48;44.06;99354.44;4990750;28;20034;-70
2022/06/11 00:51:41;;;;;;;8.23;4.30;;;;;;;24.48;43.66;99351.75;4992786;28;20029;-70
2022/06/11 00:54:14;;;;;;;6.22;4.07;;;;;;;24.48;43.78;99354.44;4993761;28;20508;-70
2022/06/11 00:56:49;;;;;;;5.97;3.80;;;;;;;24.46;44.03;99353.84;4993049;28;20034;-70
2022/06/11 00:59:21;;;;;;;7.38;4.00;;;;;;;24.45;43.92;99349.47;4993783;28;20069;-69
2022/06/11 01:01:47;;;;;;;6.55;3.63;;;;;;;24.44;43.79;99350.50;4993294;28;20037;-70
2022/06/11 01:04:38;;;;;;;4.80;3.45;;;;;;;24.46;43.86;99348.41;4992824;28;20486;-69
2022/06/11 01:07:31;;;;;;;6.07;3.90;;;;;;;24.44;43.96;99361.31;4993114;28;20036;-70
2022/06/11 01:10:05;;;;;;;7.40;4.03;;;;;;;24.44;43.77;99372.16;4992976;28;20046;-69
2022/06/11 01:12:39;;;;;;;5.20;3.42;;;;;;;24.44;44.10;99359.44;4982793;28;20486;-70
2022/06/11 01:15:22;;;;;;;5.32;3.88;;;;;;;24.44;44.00;99366.72;4980240;28;20030;-69
2022/06/11 01:17:53;;;;;;;8.90;3.60;;;;;;;24.45;43.92;99373.81;4993081;28;20033;-70
2022/06/11 01:20:24;;;;;;;5.70;3.80;;;;;;;24.47;44.06;99369.81;4992621;28;20057;-71
2022/06/11 01:23:43;;;;;;;7.10;3.97;;;;;;;24.48;44.13;99374.19;4992573;28;20125;-69
2022/06/11 01:26:46;;;;;;;5.28;3.60;;;;;;;24.50;44.30;99376.66;4938334;29;20406;-69
2022/06/11 01:29:47;;;;;;;5.05;4.03;;;;;;;24.49;44.13;99378.56;4974167;28;20038;-70
2022/06/11 01:32:41;;;;;;;5.07;3.63;;;;;;;24.49;44.11;99378.56;4975381;28;20061;-69
2022/06/11 01:35:28;;;;;;;5.47;3.58;;;;;;;24.51;44.15;99381.03;4992287;28;20117;-71
2022/06/11 01:38:03;;;;;;;4.30;3.75;;;;;;;24.51;44.23;99381.88;4992590;28;20116;-70
2022/06/11 01:40:56;;;;;;;8.02;3.85;;;;;;;24.51;44.29;99384.59;4992927;28;20124;-70
2022/06/11 01:43:37;;;;;;;5.78;3.92;;;;;;;24.48;44.46;99385.00;4993025;28;20093;-70
2022/06/11 01:46:06;;;;;;;;;;;;;;;24.42;44.31;99390.47;4993178;28;20092;-69
2022/06/11 01:48:33;;;;;;;5.85;3.97;;;;;;;24.44;44.60;99391.88;4993066;28;19917;-71
2022/06/11 01:51:11;;;;;;;6.53;4.07;;;;;;;24.45;44.25;99388.13;4992005;28;20038;-70
2022/06/11 01:53:58;;;;;;;7.28;3.70;;;;;;;24.47;44.02;99383.34;4992081;28;20042;-71
2022/06/11 01:57:05;;;;;;;6.20;4.32;;;;;;;24.48;43.85;99392.31;4973778;28;20034;-70
2022/06/11 01:59:56;;;;;;;5.07;3.83;;;;;;;24.48;43.95;99397.72;4961139;28;20068;-70
2022/06/11 02:02:40;;;;;;;4.75;3.70;;;;;;;24.47;44.03;99396.06;4975255;28;20143;-68
2022/06/11 02:05:44;;;;;;;5.45;3.55;;;;;;;24.47;44.21;99385.25;4992918;28;20042;-69
2022/06/11 02:08:39;;;;;;;10.55;3.85;;;;;;;24.46;43.82;99372.75;4977690;28;20048;-69
2022/06/11 02:11:18;;;;;;;4.00;3.38;;;;;;;24.46;44.17;99375.47;4992730;28;20038;-69
2022/06/11 02:13:56;;;;;;;5.88;3.90;;;;;;;24.46;43.90;99372.75;4990656;28;20042;-69
2022/06/11 02:16:32;;;;;;;8.50;4.28;;;;;;;24.50;44.25;99371.25;4992976;28;20061;-72
2022/06/11 02:19:03;;;;;;;6.53;3.38;;;;;;;24.49;43.98;99362.34;4992859;28;20121;-72
2022/06/11 02:21:30;;;;;;;;;;;;;;;24.44;44.08;99359.44;4992846;28;20045;-71
2022/06/11 02:24:18;;;;;;;7.32;3.90;;;;;;;24.54;44.13;99364.38;4992216;28;19925;-72
2022/06/11 02:26:49;;;;;;;6.30;4.45;;;;;;;24.74;43.82;99363.47;4991781;28;20034;-71
2022/06/11 02:29:17;;;;;;;5.63;3.95;;;;;;;24.92;43.62;99360.84;4992371;28;20445;-72
2022/06/11 02:32:02;;;;;;;7.93;4.88;;;;;;;25.07;43.55;99349.69;4992758;28;20034;-72
2022/06/11 02:34:27;;;;;;;10.98;4.63;;;;;;;25.19;43.13;99344.38;4992328;28;20034;-70
2022/06/11 02:37:24;;;;;;;7.28;4.75;;;;;;;25.25;43.30;99351.59;4991903;28;20060;-70
2022/06/11 02:39:51;;;;;;;10.85;5.45;;;;;;;25.21;43.21;99350.41;4983934;28;20056;-71
2022/06/11 02:42:20;;;;;;;7.70;4.60;;;;;;;25.20;43.23;99345.19;4992172;28;20087;-70
2022/06/11 02:44:46;;;;;;;14.27;4.75;;;;;;;25.14;43.43;99353.19;4992115;28;20117;-69
2022/06/11 02:47:13;;;;;;;6.80;4.35;;;;;;;25.12;43.29;99354.44;4995642;28;20027;-70
2022/06/11 02:49:39;;;;;;;7.03;4.35;;;;;;;25.08;43.34;99358.63;4995715;28;20038;-70
2022/06/11 02:52:21;;;;;;;7.25;4.55;;;;;;;25.06;43.65;99361.56;4995329;28;20473;-71
2022/06/11 02:54:49;;;;;;;7.05;4.43;;;;;;;25.04;43.36;99366.38;4995855;28;20081;-69
2022/06/11 02:57:18;;;;;;;7.13;4.07;;;;;;;25.01;43.39;99366.78;4993908;28;20383;-70
2022/06/11 02:59:45;;;;;;;9.25;4.82;;;;;;;25.05;43.71;99373.44;4994949;28;20049;-70
2022/06/11 03:02:11;;;;;;;7.47;4.75;;;;;;;25.05;43.81;99365.31;4995936;28;20038;-71
2022/06/11 03:04:37;;;;;;;7.72;4.22;;;;;;;25.10;43.57;99367.34;4995503;28;20048;-69
2022/06/11 03:07:04;;;;;;;10.60;4.38;;;;;;;25.13;43.50;99356.94;4995651;28;20516;-70
2022/06/11 03:09:33;;;;;;;14.27;4.60;;;;;;;25.20;43.82;99347.91;4994583;28;20041;-70
2022/06/11 03:12:00;;;;;;;8.77;5.65;;;;;;;25.28;43.65;99351.16;4989181;28;20046;-69
2022/06/11 03:14:25;;;;;;;7.45;4.82;;;;;;;25.51;43.44;99348.91;4976274;28;20069;-69
2022/06/11 03:16:51;;;;;;;7.10;4.80;;;;;;;25.77;43.05;99347.81;4981094;28;20113;-71
2022/06/11 03:19:20;;;;;;;9.40;4.85;;;;;;;26.09;42.53;99342.22;4994946;28;20046;-70
2022/06/11 03:21:46;;;;;;;6.32;4.10;;;;;;;26.43;41.80;99349.94;4994535;28;20122;-70
2022/06/11 03:24:12;;;;;;;5.63;3.85;;;;;;;26.72;41.29;99355.59;4994623;28;20405;-69
2022/06/11 03:26:38;;;;;;;5.80;4.10;;;;;;;26.97;40.64;99347.28;4994795;28;20034;-70
2022/06/11 03:29:04;;;;;;;7.65;4.28;;;;;;;27.22;40.57;99359.81;4994805;28;20042;-70
2022/06/11 03:31:30;;;;;;;7.10;4.00;;;;;;;27.39;40.17;99351.78;4995483;28;20033;-70
2022/06/11 03:33:56;;;;;;;7.28;4.13;;;;;;;27.46;40.06;99357.13;4995286;28;20117;-69
2022/06/11 03:36:21;;;;;;;7.68;3.72;;;;;;;27.48;39.71;99363.16;4995037;28;20525;-72
2022/06/11 03:38:48;;;;;;;7.10;3.67;;;;;;;27.47;39.91;99361.50;4994329;28;20450;-71
2022/06/11 03:41:14;;;;;;;7.78;3.85;;;;;;;27.44;39.80;99362.78;4994943;28;20078;-69
2022/06/11 03:43:40;;;;;;;5.93;3.83;;;;;;;27.41;39.83;99363.25;4995197;28;20049;-70
2022/06/11 03:46:06;;;;;;;11.95;4.65;;;;;;;27.35;39.87;99370.47;4995113;28;20035;-69
2022/06/11 03:48:35;;;;;;;6.25;4.50;;;;;;;27.34;39.75;99368.81;4994311;28;20141;-69
2022/06/11 03:51:03;;;;;;;5.35;3.47;;;;;;;27.41;39.65;99366.81;4994538;28;20425;-69
2022/06/11 03:53:29;;;;;;;6.32;3.90;;;;;;;27.45;39.62;99375.34;4995189;28;20435;-69
2022/06/11 03:55:56;;;;;;;12.30;3.97;;;;;;;27.41;39.92;99368.69;4995039;28;20124;-68
2022/06/11 03:58:22;;;;;;;7.65;3.88;;;;;;;27.34;39.60;99365.28;4994143;28;20422;-68
2022/06/11 04:03:33;;;;;;;5.80;4.80;;;;;;;27.23;40.00;99361.47;4995159;28;20177;-68
2022/06/11 04:05:59;;;;;;;6.78;4.25;;;;;;;27.20;39.90;99367.38;4994328;28;20088;-68
2022/06/11 04:08:26;;;;;;;9.57;4.03;;;;;;;27.19;39.98;99374.72;4994233;28;20113;-69
2022/06/11 04:10:56;;;;;;;4.85;3.67;;;;;;;27.16;39.75;99372.47;4994040;28;20060;-69
2022/06/11 04:13:24;;;;;;;5.85;3.65;;;;;;;27.13;39.85;99363.97;4993824;28;20034;-69
2022/06/11 04:15:51;;;;;;;6.20;3.58;;;;;;;27.08;39.81;99364.63;4994531;28;20050;-69
2022/06/11 04:18:34;;;;;;;3.70;3.20;;;;;;;27.04;39.85;99358.84;4993351;28;20046;-70
2022/06/11 04:21:03;;;;;;;5.97;4.18;;;;;;;27.07;40.09;99357.56;4993943;28;20042;-70
2022/06/11 04:23:30;;;;;;;5.88;3.33;;;;;;;27.12;39.87;99360.41;4993524;28;20049;-68
2022/06/11 04:26:01;;;;;;;4.70;3.42;;;;;;;27.17;39.94;99352.38;4994638;28;20074;-70
2022/06/11 04:28:28;;;;;;;;;;;;;;;27.11;39.89;99358.75;4994368;28;20058;-70
2022/06/11 04:30:54;;;;;;;5.68;3.63;;;;;;;27.16;39.88;99353.44;4993569;28;19968;-70
2022/06/11 04:33:20;;;;;;;4.10;2.95;;;;;;;27.34;39.92;99366.09;4993860;28;20517;-70
2022/06/11 04:35:47;;;;;;;5.20;3.65;;;;;;;27.62;39.57;99361.03;4994609;28;20042;-70
2022/06/11 04:38:12;;;;;;;5.28;3.65;;;;;;;27.89;38.53;99364.06;4994311;28;20409;-71
2022/06/11 04:40:38;;;;;;;5.55;3.50;;;;;;;28.15;38.39;99370.06;4994572;28;20051;-70
2022/06/11 04:43:04;;;;;;;5.60;3.03;;;;;;;28.38;37.75;99371.88;4993236;28;20580;-71
2022/06/11 04:45:30;;;;;;;5.60;3.53;;;;;;;28.57;37.80;99356.19;4994283;28;20172;-69
2022/06/11 04:47:55;;;;;;;4.60;3.17;;;;;;;28.74;37.35;99363.59;4994194;28;20033;-70
2022/06/11 04:50:21;;;;;;;4.70;2.95;;;;;;;28.89;37.26;99369.31;4994214;28;20037;-70
2022/06/11 04:52:47;;;;;;;4.57;3.10;;;;;;;29.03;36.97;99374.41;4992905;28;20030;-70
2022/06/11 04:55:14;;;;;;;4.72;3.05;;;;;;;29.12;36.87;99375.66;4993476;28;20606;-70
2022/06/11 04:57:40;;;;;;;4.32;3.08;;;;;;;29.19;36.80;99376.28;4993361;28;20413;-70
2022/06/11 05:00:08;;;;;;;6.53;3.40;;;;;;;29.20;36.66;99377.94;4992887;28;20390;-70
2022/06/11 05:02:34;;;;;;;4.72;3.40;;;;;;;29.22;36.49;99385.91;4993275;28;20026;-70
2022/06/11 05:04:59;;;;;;;4.45;2.97;;;;;;;29.28;36.24;99393.06;4993901;28;20485;-70
2022/06/11 05:07:25;;;;;;;3.92;2.83;;;;;;;29.35;36.07;99393.75;4993317;28;20037;-70
2022/06/11 05:09:50;;;;;;;3.50;2.42;;;;;;;29.43;35.87;99394.41;4993000;28;20652;-71
2022/06/11 05:12:16;;;;;;;4.00;2.95;;;;;;;29.45;36.04;99382.19;4993076;28;20034;-70
2022/06/11 05:14:42;;;;;;;5.35;2.90;;;;;;;29.44;36.45;99379.69;4993660;28;20079;-70
2022/06/11 05:17:08;;;;;;;4.18;3.05;;;;;;;29.46;36.44;99380.28;4992767;28;20084;-70
2022/06/11 05:19:33;;;;;;;3.70;2.75;;;;;;;29.44;36.26;99377.81;4993415;28;20100;-71
2022/06/11 05:21:59;;;;;;;3.38;2.67;;;;;;;29.38;36.00;99376.06;4992505;28;20405;-71
2022/06/11 05:24:25;;;;;;;8.68;3.55;;;;;;;29.32;35.99;99377.06;4992622;28;20045;-71
2022/06/11 05:26:55;;;;;;;3.88;2.88;;;;;;;29.26;36.60;99380.75;4992567;28;20054;-69
2022/06/11 05:29:31;;;;;;;3.78;2.50;;;;;;;29.21;36.43;99385.06;4993585;28;20045;-69
2022/06/11 05:31:57;;;;;;;3.72;2.58;;;;;;;29.18;36.26;99385.56;4993414;28;20049;-69
2022/06/11 05:34:22;;;;;;;2.75;2.42;;;;;;;29.14;36.26;99384.41;4992815;28;20074;-69
2022/06/11 05:36:48;;;;;;;3.35;2.45;;;;;;;29.08;36.56;99388.09;4992766;28;20045;-69
2022/06/11 05:39:16;;;;;;;3.90;2.30;;;;;;;28.97;36.67;99387.09;4993237;28;20077;-69
2022/06/11 05:41:42;;;;;;;5.18;2.67;;;;;;;28.88;36.68;99383.97;4992777;28;20093;-70
2022/06/11 05:44:08;;;;;;;4.03;2.35;;;;;;;28.77;36.77;99385.69;4993701;28;20456;-68
2022/06/11 05:46:34;;;;;;;3.78;2.35;;;;;;;28.68;36.87;99381.66;4992510;28;20030;-70
2022/06/11 05:49:04;;;;;;;3.83;2.15;;;;;;;28.61;36.77;99381.81;4992774;28;20049;-69
2022/06/11 05:51:37;;;;;;;8.60;2.17;;;;;;;28.58;36.85;99378.78;4992650;28;20133;-70
2022/06/11 05:54:10;;;;;;;5.82;2.40;;;;;;;28.53;37.22;99382.22;4992258;28;20033;-69
2022/06/11 05:56:37;;;;;;;4.03;2.55;;;;;;;28.53;36.99;99390.38;4992308;28;20030;-69
2022/06/11 05:59:07;;;;;;;6.22;2.33;;;;;;;28.54;36.82;99393.94;4992826;28;20038;-69
2022/06/11 06:01:39;;;;;;;7.63;2.63;;;;;;;28.50;36.66;99385.44;4992794;28;20065;-69
2022/06/11 06:04:05;;;;;;;3.90;2.20;;;;;;;28.52;36.69;99383.28;4992865;28;20281;-69
2022/06/11 06:06:30;;;;;;;3.25;1.98;;;;;;;28.55;37.05;99384.69;4993037;28;20385;-68
2022/06/11 06:08:56;;;;;;;3.20;2.30;;;;;;;28.57;36.96;99388.84;4992947;28;20030;-69
2022/06/11 06:11:21;;;;;;;5.47;2.45;;;;;;;28.54;35.69;99393.94;4992633;28;20517;-69
2022/06/11 06:13:47;;;;;;;9.88;2.42;;;;;;;28.50;35.96;99395.50;4992766;28;20030;-68
2022/06/11 06:16:17;;;;;;;3.67;2.30;;;;;;;28.43;36.79;99401.09;4992452;28;20039;-70
2022/06/11 06:18:43;;;;;;;4.03;2.13;;;;;;;28.36;36.59;99405.84;4992464;28;20034;-70
2022/06/11 06:21:08;;;;;;;3.65;1.90;;;;;;;28.28;36.73;99413.31;4994186;28;20042;-70
2022/06/11 06:23:34;;;;;;;3.55;2.08;;;;;;;28.21;36.91;99409.91;4996171;28;20034;-68
2022/06/11 06:26:00;;;;;;;3.83;2.65;;;;;;;28.15;37.27;99419.84;4996497;28;20117;-68
2022/06/11 06:28:26;;;;;;;3.03;1.88;;;;;;;28.07;37.30;99414.75;4995882;28;20516;-69
2022/06/11 06:30:52;;;;;;;4.30;2.38;;;;;;;28.03;37.42;99411.66;4996424;28;20128;-69
2022/06/11 06:33:18;;;;;;;3.20;1.90;;;;;;;27.98;37.18;99411.59;4996253;28;20073;-69
2022/06/11 06:35:43;;;;;;;5.13;2.20;;;;;;;27.94;37.60;99418.56;4996011;28;20533;-69
2022/06/11 06:38:09;;;;;;;9.77;3.25;;;;;;;27.89;37.44;99418.44;4995531;28;20116;-70
2022/06/11 06:40:35;;;;;;;2.83;1.73;;;;;;;27.85;37.56;99423.53;4996338;28;20042;-70
2022/06/11 06:43:01;;;;;;;3.47;2.10;;;;;;;27.85;37.58;99417.28;4995798;28;20038;-70
2022/06/11 06:45:27;;;;;;;2.90;2.22;;;;;;;27.82;37.59;99415.03;4996071;28;20030;-70
2022/06/11 06:47:52;;;;;;;3.20;2.13;;;;;;;27.82;37.18;99412.31;4995292;28;20552;-70
2022/06/11 06:50:18;;;;;;;5.82;2.10;;;;;;;27.82;36.29;99417.75;4995177;28;20390;-68
2022/06/11 06:52:43;;;;;;;3.70;1.85;;;;;;;27.81;35.90;99413.38;4996152;28;20080;-69
2022/06/11 06:55:09;;;;;;;3.30;1.58;;;;;;;27.79;34.86;99421.78;4996293;28;20393;-70
2022/06/11 06:57:35;;;;;;;3.08;1.77;;;;;;;27.76;34.73;99413.25;4994784;28;20033;-70
2022/06/11 07:00:03;;;;;;;4.97;1.65;;;;;;;27.77;35.13;99420.34;4995494;28;20090;-70
2022/06/11 07:02:28;;;;;;;8.15;2.63;;;;;;;27.78;34.84;99422.00;4995695;28;20038;-68
2022/06/11 07:04:54;;;;;;;4.50;1.65;;;;;;;27.84;34.54;99418.34;4996183;28;20037;-73
2022/06/11 07:07:19;;;;;;;3.03;1.52;;;;;;;27.89;34.46;99404.84;4994480;28;20045;-70
2022/06/11 07:09:51;;;;;;;3.08;1.70;;;;;;;27.92;34.11;99420.69;4996322;28;20470;-69
2022/06/11 07:12:17;;;;;;;3.67;1.75;;;;;;;27.94;33.76;99418.56;4996157;28;20038;-69
2022/06/11 07:14:42;;;;;;;5.20;1.60;;;;;;;27.95;33.64;99422.09;4995377;28;20124;-70
2022/06/11 07:17:10;;;;;;;5.00;2.03;;;;;;;27.94;33.84;99434.88;4995105;28;20034;-70
2022/06/11 07:19:45;;;;;;;4.57;2.33;;;;;;;27.89;33.45;99437.47;4995274;28;20417;-70
2022/06/11 07:22:23;;;;;;;9.95;2.00;;;;;;;27.84;33.69;99431.94;4995705;28;20042;-70
2022/06/11 07:24:49;;;;;;;3.75;2.03;;;;;;;27.80;34.02;99425.31;4995220;28;20129;-69
2022/06/11 07:27:22;;;;;;;3.20;1.90;;;;;;;27.78;33.34;99420.13;4994938;28;20479;-70
2022/06/11 07:29:53;;;;;;;2.38;1.70;;;;;;;27.79;34.43;99426.38;4995549;28;20052;-70
2022/06/11 07:32:20;;;;;;;4.65;1.67;;;;;;;27.81;35.04;99429.69;4994357;28;20409;-70
2022/06/11 07:34:46;;;;;;;2.95;1.88;;;;;;;27.80;34.73;99433.47;4995254;28;20069;-70
2022/06/11 07:37:13;;;;;;;3.75;2.38;;;;;;;27.79;34.86;99429.09;4995128;28;20390;-69
2022/06/11 07:39:38;;;;;;;3.30;1.65;;;;;;;27.76;35.51;99441.28;4995087;28;20041;-69
2022/06/11 07:42:04;;;;;;;2.53;1.50;;;;;;;27.73;35.48;99439.03;4994849;28;20042;-69
2022/06/11 07:44:31;;;;;;;4.28;1.45;;;;;;;27.70;34.69;99443.06;4995162;28;20030;-69
2022/06/11 07:46:56;;;;;;;2.95;1.95;;;;;;;27.65;34.48;99431.22;4994600;28;20042;-69
2022/06/11 07:49:22;;;;;;;3.85;1.40;;;;;;;27.60;34.04;99431.09;4995243;28;20042;-70
2022/06/11 07:51:48;;;;;;;3.25;1.33;;;;;;;27.56;34.03;99436.19;4995309;28;20053;-70
2022/06/11 07:54:14;;;;;;;2.00;1.50;;;;;;;27.53;34.44;99433.94;4995093;28;20493;-69
2022/06/11 07:56:39;;;;;;;2.85;1.40;;;;;;;27.51;34.01;99441.50;4994300;28;20034;-70
2022/06/11 07:59:06;;;;;;;1.92;1.08;;;;;;;27.50;34.49;99450.72;4994762;28;20400;-70
2022/06/11 08:01:32;;;;;;;3.00;1.60;;;;;;;27.46;33.83;99455.78;4994556;28;20031;-70
2022/06/11 08:03:57;;;;;;;4.82;2.05;;;;;;;27.42;34.26;99440.97;4994891;28;20038;-70
2022/06/11 08:06:23;;;;;;;3.08;1.63;;;;;;;27.40;34.17;99452.09;4994360;28;20036;-70
2022/06/11 08:08:50;;;;;;;2.50;1.45;;;;;;;27.40;34.80;99453.97;4994656;28;20370;-69
2022/06/11 08:11:16;;;;;;;2.88;1.50;;;;;;;27.38;34.78;99446.06;4993734;28;20026;-70
2022/06/11 08:13:41;;;;;;;5.50;1.80;;;;;;;27.37;34.77;99444.41;4989833;28;20033;-70
2022/06/11 08:16:08;;;;;;;2.15;1.40;;;;;;;27.36;35.19;99456.34;4976649;28;20110;-70
2022/06/11 08:18:34;;;;;;;4.68;1.85;;;;;;;27.34;35.01;99457.63;4991088;28;20057;-70
2022/06/11 08:20:59;;;;;;;8.65;1.92;;;;;;;27.33;34.54;99448.66;4994243;28;20042;-70
2022/06/11 08:23:25;;;;;;;5.50;1.23;;;;;;;27.29;34.15;99443.91;4993743;28;20129;-69
2022/06/11 08:25:52;;;;;;;6.30;1.73;;;;;;;27.23;34.38;99443.78;4994358;28;20030;-70
2022/06/11 08:28:18;;;;;;;1.90;1.35;;;;;;;27.21;34.50;99451.31;4994162;28;20084;-69
2022/06/11 08:30:45;;;;;;;1.80;1.20;;;;;;;27.20;34.31;99454.28;4994265;28;20536;-71
2022/06/11 08:33:11;;;;;;;3.08;1.50;;;;;;;27.18;34.16;99464.56;4993957;28;20088;-70
2022/06/11 08:35:38;;;;;;;4.88;1.30;;;;;;;27.13;34.48;99459.00;4993766;28;20408;-69
2022/06/11 08:38:05;;;;;;;2.35;1.33;;;;;;;27.13;34.43;99464.44;4993616;28;20040;-69
2022/06/11 08:40:33;;;;;;;2.20;1.27;;;;;;;27.11;34.62;99454.63;4993990;28;20042;-69
2022/06/11 08:43:21;;;;;;;2.55;1.67;;;;;;;27.13;35.29;99456.28;4993421;28;20061;-69
2022/06/11 08:45:53;;;;;;;2.25;1.50;;;;;;;27.11;35.88;99448.34;4994185;28;20440;-69
2022/06/11 08:48:32;;;;;;;3.72;1.60;;;;;;;27.11;35.93;99453.78;4993543;28;20166;-70
2022/06/11 08:51:20;;;;;;;2.90;1.60;;;;;;;27.10;35.82;99450.25;4994384;28;20477;-69
2022/06/11 08:53:48;;;;;;;3.53;2.38;;;;;;;27.11;35.72;99449.22;4973476;28;20437;-69
2022/06/11 08:56:25;;;;;;;3.47;1.60;;;;;;;27.13;36.12;99448.16;4993628;28;20401;-70
2022/06/11 08:59:20;;;;;;;4.78;1.90;;;;;;;27.14;36.06;99452.50;4992308;28;20390;-69
2022/06/11 09:02:10;;;;;;;5.65;2.10;;;;;;;27.15;35.74;99452.28;4991034;28;20145;-67
2022/06/11 09:04:50;;;;;;;4.50;1.73;;;;;;;27.14;36.12;99447.06;4989242;28;20153;-68
2022/06/11 09:07:40;;;;;;;3.10;1.85;;;;;;;27.15;36.22;99449.56;4992068;28;20125;-70
2022/06/11 09:10:14;;;;;;;10.40;2.13;;;;;;;27.14;36.25;99447.91;4991213;28;20026;-69
2022/06/11 09:13:08;;;;;;;5.80;1.77;;;;;;;27.14;35.86;99447.06;4991556;28;20064;-69
2022/06/11 09:15:34;;;;;;;2.40;1.45;;;;;;;27.11;36.39;99446.50;4992198;28;20489;-69
2022/06/11 09:18:08;;;;;;;2.10;1.50;;;;;;;27.12;36.21;99452.72;4991668;28;20113;-69
2022/06/11 09:20:39;;;;;;;1.90;1.10;;;;;;;27.10;36.51;99460.28;4992091;28;20034;-68
2022/06/11 09:23:26;;;;;;;3.05;1.70;;;;;;;27.08;36.20;99452.38;4991698;28;20038;-70
2022/06/11 09:26:12;;;;;;;5.15;1.48;;;;;;;27.07;36.56;99460.75;4991005;28;20035;-69
2022/06/11 09:28:55;;;;;;;4.93;3.08;;;;;;;27.02;36.43;99466.88;4992121;28;20058;-69
2022/06/11 09:31:26;;;;;;;5.60;2.70;;;;;;;26.97;36.44;99450.47;4991753;28;20477;-68
2022/06/11 09:33:59;;;;;;;3.40;2.38;;;;;;;26.95;36.45;99442.53;4980563;28;20070;-68
2022/06/11 09:36:53;;;;;;;4.70;2.40;;;;;;;26.92;36.32;99444.88;4992837;28;20061;-70
2022/06/11 09:39:35;;;;;;;3.15;2.22;;;;;;;26.88;36.65;99444.53;4977891;28;20050;-68
2022/06/11 09:42:37;;;;;;;4.22;2.17;;;;;;;26.85;36.71;99449.56;4992926;28;20042;-68
2022/06/11 09:45:25;;;;;;;6.25;2.20;;;;;;;26.82;36.75;99455.47;4992223;28;20061;-69
2022/06/11 09:48:17;;;;;;;4.13;2.05;;;;;;;26.80;36.58;99456.53;4991126;28;20064;-69
2022/06/11 09:50:50;;;;;;;6.90;2.00;;;;;;;26.77;36.45;99451.53;4993703;28;20034;-69
2022/06/11 09:53:34;;;;;;;3.45;1.83;;;;;;;26.77;36.21;99454.25;4991290;28;20038;-69
2022/06/11 09:55:59;;;;;;;4.18;2.00;;;;;;;26.76;35.99;99454.50;4977067;28;20062;-68
2022/06/11 09:59:01;;;;;;;6.50;1.67;;;;;;;26.76;35.69;99455.31;4994408;28;20046;-68
2022/06/11 10:01:39;;;;;;;4.90;1.58;;;;;;;26.72;35.71;99453.28;4996612;28;20034;-69
2022/06/11 10:04:11;;;;;;;3.78;1.35;;;;;;;26.71;35.91;99446.19;4995933;28;20076;-69
2022/06/11 10:06:47;;;;;;;2.55;1.80;;;;;;;26.71;35.91;99447.00;4996622;28;20038;-70
2022/06/11 10:09:36;;;;;;;2.03;1.20;;;;;;;26.71;35.80;99438.06;4995370;28;20154;-68
2022/06/11 10:12:43;;;;;;;5.90;1.52;;;;;;;26.71;36.03;99433.44;4992587;28;20030;-69
2022/06/11 10:15:23;;;;;;;3.08;1.52;;;;;;;26.72;36.03;99437.00;4974186;28;20041;-69
2022/06/11 10:18:01;;;;;;;3.07;1.60;;;;;;;26.72;36.24;99445.94;4992182;28;20068;-69
2022/06/11 10:20:35;;;;;;;6.60;2.28;;;;;;;26.74;36.16;99443.84;4996328;28;20278;-70
2022/06/11 10:23:22;;;;;;;5.35;1.95;;;;;;;26.75;36.16;99431.94;4994262;28;20038;-69
2022/06/11 10:25:59;;;;;;;8.50;2.58;;;;;;;26.75;36.10;99436.53;4996549;28;20038;-70
2022/06/11 10:28:49;;;;;;;9.60;2.47;;;;;;;26.75;35.86;99425.69;4995589;28;20057;-69
2022/06/11 10:31:25;;;;;;;6.43;2.10;;;;;;;26.71;35.83;99433.44;4996734;28;20042;-69
2022/06/11 10:34:12;;;;;;;8.45;2.60;;;;;;;26.70;36.06;99426.34;4994669;28;20041;-70
2022/06/11 10:36:44;;;;;;;11.30;3.28;;;;;;;26.68;36.08;99428.50;4994934;28;20037;-72
2022/06/11 10:39:19;;;;;;;7.20;2.40;;;;;;;26.64;36.47;99419.97;4991243;28;20034;-71
2022/06/11 10:41:47;;;;;;;7.05;2.35;;;;;;;26.66;36.38;99419.75;4995793;28;20100;-71
2022/06/11 10:44:37;;;;;;;5.03;2.30;;;;;;;26.69;36.79;99411.13;4984094;28;20108;-71
2022/06/11 10:47:17;;;;;;;9.23;2.35;;;;;;;26.68;36.95;99409.50;4985762;28;20036;-70
2022/06/11 10:49:49;;;;;;;4.22;2.00;;;;;;;26.68;36.85;99409.50;4997644;28;20091;-69
2022/06/11 10:52:38;;;;;;;5.63;2.17;;;;;;;26.72;36.83;99409.84;4990011;28;20022;-71
2022/06/11 10:55:32;;;;;;;5.32;2.00;;;;;;;26.70;37.07;99418.22;4994702;28;20382;-69
2022/06/11 10:58:10;;;;;;;8.48;2.38;;;;;;;26.69;37.09;99416.56;4992072;28;20072;-71
2022/06/11 11:00:44;;;;;;;5.53;2.38;;;;;;;26.72;37.10;99416.09;4995513;28;20038;-67
2022/06/11 11:03:22;;;;;;;5.15;2.10;;;;;;;26.72;37.57;99412.56;4986197;28;20049;-71
2022/06/11 11:05:59;;;;;;;5.40;2.58;;;;;;;26.73;37.74;99415.03;4994640;28;20042;-70
2022/06/11 11:08:24;;;;;;;5.35;2.08;;;;;;;26.77;37.58;99418.13;4994759;28;20564;-68
2022/06/11 11:10:53;;;;;;;11.20;2.58;;;;;;;26.79;37.60;99419.59;4995347;28;20117;-71
2022/06/11 11:13:30;;;;;;;7.40;2.30;;;;;;;26.80;37.35;99412.25;4993768;28;20129;-71
2022/06/11 11:16:12;;;;;;;9.05;3.22;;;;;;;26.78;37.47;99419.78;4995528;28;20045;-70
2022/06/11 11:18:53;;;;;;;4.65;3.00;;;;;;;26.77;37.72;99421.69;4995470;28;20046;-70
2022/06/11 11:21:26;;;;;;;21.20;5.28;;;;;;;26.77;37.74;99423.53;4995152;28;20176;-69
2022/06/11 11:23:57;;;;;;;9.48;5.57;;;;;;;26.76;38.03;99422.72;4994785;28;20038;-70
2022/06/11 11:26:35;;;;;;;18.98;5.95;;;;;;;26.77;37.93;99428.97;4994108;28;20113;-73
2022/06/11 11:29:21;;;;;;;36.67;12.50;;;;;;;26.78;38.26;99427.91;4976769;28;20051;-70
2022/06/11 11:31:52;;;;;;;33.20;14.40;;;;;;;26.78;38.42;99431.47;4979482;28;20091;-72
2022/06/11 11:34:20;;;;;;;;;;;;;;;26.70;38.37;99429.06;4995829;28;20038;-70
2022/06/11 11:36:46;;;;;;;51.75;18.48;;;;;;;26.71;38.60;99430.72;4994655;28;19958;-73
2022/06/11 11:39:15;;;;;;;28.15;10.52;;;;;;;26.74;38.33;99418.59;4994584;28;20066;-70
2022/06/11 11:41:52;;;;;;;15.00;5.68;;;;;;;26.76;38.05;99422.72;4994867;28;20034;-70
2022/06/11 11:44:23;;;;;;;15.45;5.45;;;;;;;26.74;38.17;99421.31;4994714;28;20510;-73
2022/06/11 11:46:55;;;;;;;14.32;4.75;;;;;;;26.72;38.24;99429.66;4994960;28;20057;-71
2022/06/11 11:49:29;;;;;;;11.18;3.55;;;;;;;26.68;38.23;99425.78;4995370;28;20038;-72
2022/06/11 11:52:05;;;;;;;11.23;3.58;;;;;;;26.64;38.14;99424.56;4995159;28;20034;-72
2022/06/11 11:54:33;;;;;;;9.23;3.13;;;;;;;26.63;38.21;99422.91;4994144;28;20523;-70
2022/06/11 11:57:02;;;;;;;10.85;3.28;;;;;;;26.61;38.15;99419.59;4994312;28;20089;-70
2022/06/11 11:59:49;;;;;;;6.75;3.10;;;;;;;26.59;38.11;99427.13;4994613;28;20049;-71
2022/06/11 12:02:25;;;;;;;10.80;3.78;;;;;;;26.57;38.23;99416.53;4994521;28;20038;-71